createdAt,value
2023-03-05T00:01:24.510Z,39.40
2023-03-05T00:03:53.635Z,33.33
2023-03-05T00:06:22.661Z,39.42
2023-03-05T00:08:51.560Z,42.08
2023-03-05T00:11:19.058Z,37.50
2023-03-05T00:13:46.267Z,45.00
2023-03-05T00:16:15.626Z,38.33
2023-03-05T00:18:43.503Z,40.90
2023-03-05T00:21:30.754Z,37.00
2023-03-05T00:23:59.051Z,34.33
2023-03-05T00:26:27.468Z,43.00
2023-03-05T00:28:56.142Z,34.33
2023-03-05T00:31:30.584Z,40.65
2023-03-05T00:34:04.155Z,39.10
2023-03-05T00:36:31.279Z,42.65
2023-03-05T00:38:59.060Z,40.17
2023-03-05T00:41:26.144Z,41.05
2023-03-05T00:43:53.422Z,41.63
2023-03-05T00:46:20.367Z,39.55
2023-03-05T00:48:47.364Z,43.70
2023-03-05T00:51:14.458Z,43.30
2023-03-05T00:53:41.609Z,32.75
2023-03-05T00:56:08.681Z,33.20
2023-03-05T00:58:35.661Z,38.35
2023-03-05T01:01:03.883Z,36.85
2023-03-05T01:03:32.358Z,34.30
2023-03-05T01:06:00.671Z,31.88
2023-03-05T01:08:27.897Z,36.75
2023-03-05T01:10:55.234Z,36.55
2023-03-05T01:13:22.614Z,37.03
2023-03-05T01:15:51.153Z,32.78
2023-03-05T01:18:19.721Z,37.75
2023-03-05T01:20:47.575Z,35.00
2023-03-05T01:23:14.927Z,34.63
2023-03-05T01:25:41.950Z,34.33
2023-03-05T01:28:09.045Z,36.85
2023-03-05T01:30:36.356Z,40.03
2023-03-05T01:33:03.798Z,34.92
2023-03-05T01:35:30.823Z,43.15
2023-03-05T01:37:57.877Z,39.45
2023-03-05T01:40:27.582Z,34.72
2023-03-05T01:43:01.688Z,39.85
2023-03-05T01:45:32.534Z,37.77
2023-03-05T01:48:00.329Z,41.53
2023-03-05T01:50:29.282Z,37.65
2023-03-05T01:53:03.282Z,37.20
2023-03-05T01:55:33.102Z,38.70
2023-03-05T01:58:05.199Z,34.72
2023-03-05T02:00:40.335Z,37.28
2023-03-05T02:03:10.881Z,39.70
2023-03-05T02:05:39.777Z,40.10
2023-03-05T02:08:10.127Z,34.42
2023-03-05T02:10:40.515Z,36.75
2023-03-05T02:13:10.699Z,37.28
2023-03-05T02:15:41.066Z,39.75
2023-03-05T02:18:08.760Z,40.33
2023-03-05T02:20:52.998Z,35.22
2023-03-05T02:23:22.723Z,39.47
2023-03-05T02:25:49.703Z,40.20
2023-03-05T02:28:40.871Z,36.90
2023-03-05T02:31:17.472Z,40.72
2023-03-05T02:33:45.748Z,31.98
2023-03-05T02:36:15.409Z,41.08
2023-03-05T02:38:44.307Z,39.60
2023-03-05T02:41:11.773Z,36.47
2023-03-05T02:43:39.140Z,37.05
2023-03-05T02:46:12.462Z,34.72
2023-03-05T02:48:39.782Z,39.58
2023-03-05T02:51:08.641Z,39.45
2023-03-05T02:53:35.977Z,36.00
2023-03-05T02:56:06.080Z,32.08
2023-03-05T02:58:35.140Z,37.70
2023-03-05T03:01:02.297Z,37.47
2023-03-05T03:03:29.522Z,38.72
2023-03-05T03:05:56.522Z,38.92
2023-03-05T03:08:23.506Z,32.22
2023-03-05T03:10:50.468Z,37.85
2023-03-05T03:13:17.477Z,40.53
2023-03-05T03:15:44.786Z,32.38
2023-03-05T03:18:11.803Z,33.38
2023-03-05T03:20:39.341Z,37.60
2023-03-05T03:23:07.223Z,35.97
2023-03-05T03:25:34.386Z,35.58
2023-03-05T03:28:01.362Z,43.60
2023-03-05T03:30:28.296Z,40.10
2023-03-05T03:32:55.188Z,31.08
2023-03-05T03:35:22.242Z,35.85
2023-03-05T03:37:49.176Z,38.50
2023-03-05T03:40:16.404Z,38.92
2023-03-05T03:42:43.325Z,33.95
2023-03-05T03:45:10.677Z,34.05
2023-03-05T03:47:37.598Z,34.50
2023-03-05T03:50:05.463Z,30.33
2023-03-05T03:52:32.481Z,35.53
2023-03-05T03:55:02.168Z,37.60
2023-03-05T03:57:30.698Z,36.50
2023-03-05T03:59:57.635Z,32.58
2023-03-05T04:02:24.633Z,37.70
2023-03-05T04:04:52.336Z,35.65
2023-03-05T04:07:19.943Z,33.55
2023-03-05T04:09:46.931Z,34.55
2023-03-05T04:12:18.451Z,36.72
2023-03-05T04:14:47.245Z,33.47
2023-03-05T04:17:14.976Z,37.65
2023-03-05T04:19:47.107Z,32.13
2023-03-05T04:22:16.087Z,37.90
2023-03-05T04:24:43.538Z,34.22
2023-03-05T04:27:11.365Z,32.22
2023-03-05T04:29:39.057Z,33.72
2023-03-05T04:32:09.206Z,37.60
2023-03-05T04:34:38.138Z,32.75
2023-03-05T04:37:05.225Z,35.17
2023-03-05T04:39:32.227Z,36.25
2023-03-05T04:41:59.174Z,34.33
2023-03-05T04:44:26.280Z,29.15
2023-03-05T04:46:53.171Z,35.15
2023-03-05T04:49:20.090Z,38.00
2023-03-05T04:51:47.125Z,34.28
2023-03-05T04:54:14.042Z,28.85
2023-03-05T04:56:40.928Z,30.10
2023-03-05T04:59:08.043Z,40.65
2023-03-05T05:01:35.594Z,35.92
2023-03-05T05:04:02.635Z,32.08
2023-03-05T05:06:29.545Z,30.77
2023-03-05T05:08:56.576Z,29.25
2023-03-05T05:11:23.622Z,32.67
2023-03-05T05:13:50.622Z,28.25
2023-03-05T05:16:17.781Z,31.67
2023-03-05T05:18:45.053Z,37.25
2023-03-05T05:21:14.639Z,33.72
2023-03-05T05:23:42.619Z,36.90
2023-03-05T05:26:14.322Z,30.60
2023-03-05T05:28:43.738Z,32.67
2023-03-05T05:31:14.186Z,30.95
2023-03-05T05:33:42.013Z,28.45
2023-03-05T05:36:12.305Z,37.65
2023-03-05T05:38:41.422Z,34.78
2023-03-05T05:41:13.879Z,30.65
2023-03-05T05:43:41.066Z,30.25
2023-03-05T05:46:12.379Z,35.47
2023-03-05T05:48:39.646Z,32.30
2023-03-05T05:51:08.804Z,34.95
2023-03-05T05:53:36.758Z,36.25
2023-03-05T05:56:07.873Z,34.45
2023-03-05T05:58:35.277Z,35.35
2023-03-05T06:01:02.603Z,33.10
2023-03-05T06:03:29.584Z,31.20
2023-03-05T06:05:56.989Z,32.25
2023-03-05T06:08:23.938Z,38.75
2023-03-05T06:10:55.701Z,37.38
2023-03-05T06:13:22.696Z,35.75
2023-03-05T06:16:00.599Z,38.70
2023-03-05T06:18:28.217Z,34.30
2023-03-05T06:20:59.831Z,32.70
2023-03-05T06:23:27.993Z,35.50
2023-03-05T06:25:56.564Z,39.05
2023-03-05T06:28:26.879Z,38.70
2023-03-05T06:31:31.073Z,35.70
2023-03-05T06:34:04.236Z,36.28
2023-03-05T06:36:31.637Z,32.17
2023-03-05T06:38:59.185Z,33.70
2023-03-05T06:41:47.782Z,35.17
2023-03-05T06:44:14.761Z,33.88
2023-03-05T06:46:41.672Z,34.22
2023-03-05T06:49:09.690Z,33.28
2023-03-05T06:51:40.225Z,34.20
2023-03-05T06:54:14.269Z,35.75
2023-03-05T06:56:46.201Z,30.80
2023-03-05T06:59:16.811Z,30.65
2023-03-05T07:01:46.989Z,34.42
2023-03-05T07:04:16.225Z,43.05
2023-03-05T07:06:43.804Z,31.33
2023-03-05T07:09:15.000Z,30.90
2023-03-05T07:11:42.351Z,35.25
2023-03-05T07:14:09.345Z,29.23
2023-03-05T07:16:36.447Z,31.75
2023-03-05T07:19:05.715Z,31.27
2023-03-05T07:21:34.116Z,29.60
2023-03-05T07:24:02.900Z,32.95
2023-03-05T07:26:31.074Z,29.48
2023-03-05T07:28:58.063Z,34.15
2023-03-05T07:31:32.477Z,26.33
2023-03-05T07:34:01.113Z,27.25
2023-03-05T07:36:28.578Z,31.45
2023-03-05T07:38:55.657Z,29.42
2023-03-05T07:41:23.860Z,33.90
2023-03-05T07:43:53.133Z,30.10
2023-03-05T07:46:22.901Z,31.88
2023-03-05T07:48:50.345Z,33.95
2023-03-05T07:51:20.145Z,27.10
2023-03-05T07:53:48.688Z,31.83
2023-03-05T07:56:25.009Z,29.77
2023-03-05T07:58:52.928Z,27.00
2023-03-05T08:01:19.958Z,30.63
2023-03-05T08:03:48.440Z,28.55
2023-03-05T08:06:15.477Z,26.60
2023-03-05T08:08:42.348Z,27.02
2023-03-05T08:11:22.026Z,26.95
2023-03-05T08:13:49.642Z,27.92
2023-03-05T08:16:21.825Z,27.05
2023-03-05T08:18:49.065Z,25.25
2023-03-05T08:21:23.728Z,29.08
2023-03-05T08:23:50.752Z,22.70
2023-03-05T08:26:20.679Z,26.17
2023-03-05T08:28:48.354Z,23.23
2023-03-05T08:31:17.986Z,25.55
2023-03-05T08:33:45.089Z,30.42
2023-03-05T08:36:11.981Z,24.33
2023-03-05T08:38:39.440Z,24.17
2023-03-05T08:41:06.479Z,22.38
2023-03-05T08:43:33.464Z,22.30
2023-03-05T08:46:01.890Z,21.02
2023-03-05T08:48:29.828Z,22.10
2023-03-05T08:50:56.721Z,21.42
2023-03-05T08:53:23.970Z,25.10
2023-03-05T08:55:58.313Z,22.48
2023-03-05T09:00:52.672Z,21.63
2023-03-05T09:03:19.979Z,24.08
2023-03-05T09:05:46.925Z,21.92
2023-03-05T09:08:14.266Z,24.35
2023-03-05T09:10:42.863Z,23.33
2023-03-05T09:13:10.426Z,18.83
2023-03-05T09:15:38.113Z,25.63
2023-03-05T09:18:05.321Z,21.85
2023-03-05T09:20:33.402Z,19.08
2023-03-05T09:23:00.330Z,18.70
2023-03-05T09:25:27.407Z,24.13
2023-03-05T09:27:54.822Z,17.42
2023-03-05T09:30:21.921Z,16.98
2023-03-05T09:32:49.075Z,19.85
2023-03-05T09:35:16.062Z,19.73
2023-03-05T09:37:43.041Z,18.52
2023-03-05T09:40:16.221Z,25.92
2023-03-05T09:43:01.395Z,18.73
2023-03-05T09:45:36.744Z,18.25
2023-03-05T09:48:38.966Z,18.92
2023-03-05T09:51:06.116Z,18.02
2023-03-05T09:53:47.946Z,15.68
2023-03-05T09:56:25.908Z,17.98
2023-03-05T09:58:56.563Z,14.50
2023-03-05T10:01:50.633Z,16.52
2023-03-05T10:04:44.698Z,18.77
2023-03-05T10:07:20.908Z,16.65
2023-03-05T10:09:53.567Z,16.90
2023-03-05T10:12:42.408Z,15.95
2023-03-05T10:15:14.231Z,16.85
2023-03-05T10:18:10.720Z,17.65
2023-03-05T10:20:49.380Z,15.82
2023-03-05T10:23:37.962Z,13.73
2023-03-05T10:26:05.024Z,13.70
2023-03-05T10:28:37.505Z,16.08
2023-03-05T10:31:37.352Z,11.77
2023-03-05T10:34:25.550Z,11.95
2023-03-05T10:37:01.565Z,12.77
2023-03-05T10:39:40.638Z,17.75
2023-03-05T10:42:13.544Z,21.08
2023-03-05T10:44:46.805Z,21.67
2023-03-05T10:47:28.507Z,25.80
2023-03-05T10:49:58.368Z,22.13
2023-03-05T10:52:30.279Z,25.25
2023-03-05T10:54:57.197Z,22.00
2023-03-05T10:57:31.339Z,20.75
2023-03-05T11:00:07.909Z,28.83
2023-03-05T11:02:54.098Z,25.52
2023-03-05T11:05:49.103Z,19.90
2023-03-05T11:08:34.812Z,21.38
2023-03-05T11:11:27.203Z,20.98
2023-03-05T11:14:03.990Z,21.15
2023-03-05T11:16:33.860Z,22.05
2023-03-05T11:19:35.540Z,22.77
2023-03-05T11:22:16.173Z,18.40
2023-03-05T11:24:46.860Z,19.50
2023-03-05T11:27:25.925Z,23.27
2023-03-05T11:29:53.201Z,22.80
2023-03-05T11:32:26.821Z,21.33
2023-03-05T11:34:57.639Z,19.20
2023-03-05T11:37:27.855Z,20.10
2023-03-05T11:40:25.056Z,21.33
2023-03-05T11:42:56.828Z,19.10
2023-03-05T11:45:26.219Z,21.27
2023-03-05T11:47:56.252Z,20.73
2023-03-05T11:50:27.869Z,20.58
2023-03-05T11:52:59.189Z,21.02
2023-03-05T11:55:36.552Z,21.63
2023-03-05T11:58:27.692Z,22.08
2023-03-05T12:00:55.383Z,21.25
2023-03-05T12:03:31.947Z,21.08
2023-03-05T12:06:40.984Z,23.75
2023-03-05T12:09:18.553Z,20.42
2023-03-05T12:11:47.794Z,23.55
2023-03-05T12:14:30.203Z,27.60
2023-03-05T12:17:14.177Z,23.95
2023-03-05T12:19:47.085Z,24.10
2023-03-05T12:22:37.613Z,28.73
2023-03-05T12:25:26.052Z,29.20
2023-03-05T12:27:53.012Z,28.65
2023-03-05T12:30:34.788Z,26.38
2023-03-05T12:33:08.714Z,20.67
2023-03-05T12:35:39.740Z,24.05
2023-03-05T12:38:28.294Z,26.15
2023-03-05T12:41:20.882Z,25.08
2023-03-05T12:44:07.901Z,23.45
2023-03-05T12:46:44.752Z,28.23
2023-03-05T12:49:21.410Z,27.73
2023-03-05T12:51:51.116Z,20.45
2023-03-05T12:54:33.983Z,21.50
2023-03-05T12:57:28.791Z,20.25
2023-03-05T13:00:06.289Z,18.63
2023-03-05T13:02:46.022Z,20.25
2023-03-05T13:05:25.527Z,21.85
2023-03-05T13:07:52.678Z,17.45
2023-03-05T13:10:29.694Z,24.30
2023-03-05T13:12:58.676Z,22.42
2023-03-05T13:15:26.517Z,23.05
2023-03-05T13:18:07.615Z,19.67
2023-03-05T13:20:39.155Z,19.25
2023-03-05T13:23:18.458Z,21.63
2023-03-05T13:25:55.740Z,19.90
2023-03-05T13:28:22.794Z,21.92
2023-03-05T13:30:56.721Z,21.08
2023-03-05T13:33:35.640Z,23.40
2023-03-05T13:36:04.535Z,22.88
2023-03-05T13:38:45.271Z,22.63
2023-03-05T13:41:12.090Z,23.15
2023-03-05T13:43:49.341Z,25.63
2023-03-05T13:46:27.367Z,22.58
2023-03-05T13:48:55.060Z,26.55
2023-03-05T13:51:21.902Z,24.00
2023-03-05T13:53:49.553Z,19.98
2023-03-05T13:56:21.595Z,25.23
2023-03-05T13:58:52.805Z,23.92
2023-03-05T14:01:31.486Z,19.15
2023-03-05T14:04:09.065Z,18.17
2023-03-05T14:06:42.238Z,25.48
2023-03-05T14:09:20.873Z,20.50
2023-03-05T14:11:58.403Z,21.85
2023-03-05T14:14:27.368Z,19.52
2023-03-05T14:16:54.527Z,18.83
2023-03-05T14:19:37.218Z,22.75
2023-03-05T14:22:06.320Z,21.63
2023-03-05T14:24:34.126Z,16.50
2023-03-05T14:27:08.893Z,22.27
2023-03-05T14:29:36.436Z,18.00
2023-03-05T14:32:08.602Z,22.55
2023-03-05T14:34:38.195Z,27.10
2023-03-05T14:37:19.356Z,23.90
2023-03-05T14:40:00.868Z,19.05
2023-03-05T14:42:58.778Z,18.55
2023-03-05T14:45:27.307Z,20.52
2023-03-05T14:47:55.911Z,17.77
2023-03-05T14:50:32.194Z,28.88
2023-03-05T14:53:07.011Z,22.73
2023-03-05T14:55:35.640Z,19.98
2023-03-05T14:58:07.215Z,16.85
2023-03-05T15:00:34.392Z,15.07
2023-03-05T15:03:01.418Z,21.02
2023-03-05T15:05:28.497Z,14.57
2023-03-05T15:07:55.716Z,21.00
2023-03-05T15:10:25.136Z,15.75
2023-03-05T15:12:53.366Z,17.42
2023-03-05T15:15:22.592Z,15.73
2023-03-05T15:17:56.125Z,16.38
2023-03-05T15:20:28.213Z,16.60
2023-03-05T15:22:55.446Z,23.92
2023-03-05T15:25:24.215Z,15.93
2023-03-05T15:27:51.397Z,14.18
2023-03-05T15:30:28.635Z,13.90
2023-03-05T15:32:56.979Z,14.98
2023-03-05T15:35:25.120Z,22.67
2023-03-05T15:37:53.536Z,17.38
2023-03-05T15:40:21.740Z,15.10
2023-03-05T15:42:49.313Z,16.83
2023-03-05T15:45:16.605Z,24.23
2023-03-05T15:47:43.673Z,15.43
2023-03-05T15:50:11.135Z,15.75
2023-03-05T15:52:38.091Z,15.95
2023-03-05T15:55:05.430Z,15.13
2023-03-05T15:57:36.347Z,15.48
2023-03-05T16:00:06.396Z,20.40
2023-03-05T16:02:37.247Z,15.55
2023-03-05T16:05:04.844Z,15.60
2023-03-05T16:07:33.413Z,12.45
2023-03-05T16:10:00.433Z,12.80
2023-03-05T16:12:33.620Z,18.42
2023-03-05T16:15:00.595Z,13.90
2023-03-05T16:17:27.486Z,11.27
2023-03-05T16:19:56.027Z,11.63
2023-03-05T16:22:23.914Z,7.55
2023-03-05T16:24:50.807Z,7.93
2023-03-05T16:27:17.714Z,8.75
2023-03-05T16:29:46.090Z,12.20
2023-03-05T16:32:13.223Z,7.85
2023-03-05T16:34:40.245Z,7.03
2023-03-05T16:37:07.207Z,8.80
2023-03-05T16:39:34.622Z,12.77
2023-03-05T16:42:01.834Z,5.65
2023-03-05T16:44:28.738Z,5.07
2023-03-05T16:46:56.611Z,9.82
2023-03-05T16:49:24.165Z,6.30
2023-03-05T16:51:51.112Z,13.70
2023-03-05T16:54:18.172Z,12.00
2023-03-05T16:56:45.454Z,8.18
2023-03-05T16:59:12.338Z,7.57
2023-03-05T17:01:39.292Z,8.32
2023-03-05T17:04:06.441Z,6.95
2023-03-05T17:06:34.859Z,6.72
2023-03-05T17:09:02.973Z,7.25
2023-03-05T17:11:33.234Z,6.38
2023-03-05T17:14:00.348Z,9.68
2023-03-05T17:16:27.684Z,12.02
2023-03-05T17:18:54.741Z,7.60
2023-03-05T17:21:22.193Z,9.57
2023-03-05T17:23:49.427Z,9.00
2023-03-05T17:26:19.193Z,9.95
2023-03-05T17:28:46.924Z,11.85
2023-03-05T17:31:14.674Z,10.32
2023-03-05T17:33:42.359Z,7.20
2023-03-05T17:36:18.096Z,7.63
2023-03-05T17:38:47.719Z,8.82
2023-03-05T17:41:16.191Z,11.50
2023-03-05T17:43:43.362Z,9.98
2023-03-05T17:46:10.939Z,7.97
2023-03-05T17:48:39.367Z,13.73
2023-03-05T17:51:08.010Z,7.05
2023-03-05T17:53:36.074Z,9.68
2023-03-05T17:56:07.127Z,9.98
2023-03-05T17:58:34.115Z,11.52
2023-03-05T18:01:01.124Z,8.23
2023-03-05T18:03:28.166Z,7.93
2023-03-05T18:05:55.044Z,12.55
2023-03-05T18:08:22.418Z,12.63
2023-03-05T18:10:49.348Z,11.45
2023-03-05T18:13:16.324Z,12.20
2023-03-05T18:15:47.766Z,11.65
2023-03-05T18:18:18.763Z,8.75
2023-03-05T18:20:45.810Z,11.05
2023-03-05T18:23:13.157Z,10.27
2023-03-05T18:25:40.630Z,11.18
2023-03-05T18:28:10.194Z,7.32
2023-03-05T18:30:37.693Z,12.57
2023-03-05T18:33:05.599Z,10.25
2023-03-05T18:35:33.747Z,7.97
2023-03-05T18:38:03.351Z,11.73
2023-03-05T18:40:34.148Z,9.95
2023-03-05T18:43:02.771Z,14.15
2023-03-05T18:45:30.272Z,9.00
2023-03-05T18:47:57.609Z,7.82
2023-03-05T18:50:27.797Z,10.27
2023-03-05T18:52:54.901Z,9.60
2023-03-05T18:55:25.313Z,9.82
2023-03-05T18:57:53.321Z,8.13
2023-03-05T19:00:26.705Z,11.75
2023-03-05T19:02:54.948Z,9.75
2023-03-05T19:05:22.601Z,13.30
2023-03-05T19:07:50.236Z,8.55
2023-03-05T19:10:18.112Z,9.02
2023-03-05T19:13:06.220Z,11.82
2023-03-05T19:15:33.909Z,7.38
2023-03-05T19:18:00.962Z,9.63
2023-03-05T19:20:28.705Z,7.57
2023-03-05T19:22:56.001Z,7.30
2023-03-05T19:25:26.741Z,11.68
2023-03-05T19:27:53.704Z,10.30
2023-03-05T19:30:20.813Z,11.30
2023-03-05T19:32:47.796Z,11.98
2023-03-05T19:35:16.319Z,17.52
2023-03-05T19:37:45.944Z,13.63
2023-03-05T19:40:14.792Z,16.42
2023-03-05T19:42:41.802Z,35.17
2023-03-05T19:45:09.322Z,32.25
2023-03-05T19:47:36.448Z,35.08
2023-03-05T19:50:05.455Z,42.33
2023-03-05T19:52:32.500Z,34.30
2023-03-05T19:55:00.257Z,25.25
2023-03-05T19:57:27.268Z,31.27
2023-03-05T19:59:54.431Z,19.52
2023-03-05T20:02:22.053Z,13.98
2023-03-05T20:04:49.986Z,11.95
2023-03-05T20:07:17.084Z,16.05
2023-03-05T20:09:44.029Z,10.70
2023-03-05T20:12:11.087Z,15.35
2023-03-05T20:14:38.051Z,13.05
2023-03-05T20:17:05.018Z,9.60
2023-03-05T20:19:32.365Z,15.18
2023-03-05T20:21:59.280Z,10.45
2023-03-05T20:24:26.283Z,14.52
2023-03-05T20:26:53.186Z,9.25
2023-03-05T20:29:20.259Z,11.02
2023-03-05T20:31:50.433Z,12.02
2023-03-05T20:34:19.586Z,11.25
2023-03-05T20:36:46.736Z,11.20
2023-03-05T20:39:13.896Z,15.52
2023-03-05T20:41:41.280Z,9.15
2023-03-05T20:44:11.485Z,12.65
2023-03-05T20:46:49.587Z,13.80
2023-03-05T20:49:17.001Z,13.20
2023-03-05T20:51:43.914Z,15.35
2023-03-05T20:54:15.547Z,24.40
2023-03-05T20:56:43.106Z,20.95
2023-03-05T20:59:11.079Z,23.67
2023-03-05T21:01:40.244Z,18.75
2023-03-05T21:04:07.989Z,18.02
2023-03-05T21:06:35.696Z,19.55
2023-03-05T21:09:03.105Z,17.10
2023-03-05T21:11:30.646Z,19.88
2023-03-05T21:13:57.721Z,13.82
2023-03-05T21:16:27.601Z,16.85
2023-03-05T21:18:56.158Z,12.85
2023-03-05T21:21:23.781Z,15.63
2023-03-05T21:23:50.742Z,15.88
2023-03-05T21:26:18.255Z,10.43
2023-03-05T21:28:45.220Z,14.95
2023-03-05T21:31:17.882Z,12.70
2023-03-05T21:33:45.505Z,13.93
2023-03-05T21:36:12.588Z,13.77
2023-03-05T21:38:42.943Z,15.30
2023-03-05T21:41:10.576Z,18.50
2023-03-05T21:43:37.532Z,13.20
2023-03-05T21:46:04.651Z,10.18
2023-03-05T21:48:32.010Z,12.52
2023-03-05T21:50:59.345Z,12.93
2023-03-05T21:53:26.687Z,13.18
2023-03-05T21:56:11.095Z,16.88
2023-03-05T21:58:38.126Z,11.77
2023-03-05T22:01:05.249Z,12.27
2023-03-05T22:03:32.683Z,12.73
2023-03-05T22:05:59.741Z,17.17
2023-03-05T22:08:29.090Z,14.93
2023-03-05T22:10:56.324Z,15.43
2023-03-05T22:13:23.358Z,16.23
2023-03-05T22:15:53.743Z,16.45
2023-03-05T22:18:26.557Z,17.52
2023-03-05T22:20:55.313Z,18.00
2023-03-05T22:23:24.641Z,12.73
2023-03-05T22:26:08.009Z,15.63
2023-03-05T22:28:36.011Z,12.93
2023-03-05T22:31:03.158Z,14.20
2023-03-05T22:33:30.723Z,19.50
2023-03-05T22:35:58.515Z,18.05
2023-03-05T22:38:25.772Z,17.35
2023-03-05T22:40:53.590Z,17.05
2023-03-05T22:43:21.028Z,15.27
2023-03-05T22:45:48.143Z,14.90
2023-03-05T22:48:15.620Z,17.38
2023-03-05T22:50:44.111Z,16.25
2023-03-05T22:53:12.684Z,20.10
2023-03-05T22:55:42.894Z,18.90
2023-03-05T22:58:10.373Z,20.10
2023-03-05T23:00:37.784Z,16.45
2023-03-05T23:03:06.532Z,21.95
2023-03-05T23:05:34.687Z,24.45
2023-03-05T23:08:01.730Z,16.67
2023-03-05T23:10:31.456Z,16.95
2023-03-05T23:13:00.703Z,19.52
2023-03-05T23:15:33.784Z,20.42
2023-03-05T23:18:01.420Z,17.33
2023-03-05T23:20:31.957Z,19.13
2023-03-05T23:22:59.282Z,15.38
2023-03-05T23:25:29.228Z,18.05
2023-03-05T23:27:58.192Z,23.40
2023-03-05T23:30:27.492Z,19.10
2023-03-05T23:33:03.182Z,20.00
2023-03-05T23:35:41.670Z,23.58
2023-03-05T23:38:13.241Z,16.88
2023-03-05T23:40:43.542Z,14.40
2023-03-05T23:43:11.078Z,25.73
2023-03-05T23:45:38.422Z,18.90
2023-03-05T23:48:05.908Z,19.88
2023-03-05T23:50:35.778Z,20.73
2023-03-05T23:53:05.117Z,19.38
2023-03-05T23:55:44.273Z,17.15
2023-03-05T23:58:11.819Z,16.90
